sensor_id;sensor_type;location;lat;lon;timestamp;pressure;altitude;pressure_sealevel;temperature;humidity
48053;BME280;33824;51.600;5.718;2023-07-29T00:01:06;100548.97;;;19.82;100.00
48053;BME280;33824;51.600;5.718;2023-07-29T00:03:31;100544.75;;;19.74;100.00
48053;BME280;33824;51.600;5.718;2023-07-29T00:05:57;100543.59;;;19.70;100.00
48053;BME280;33824;51.600;5.718;2023-07-29T00:08:23;100539.97;;;19.64;100.00
48053;BME280;33824;51.600;5.718;2023-07-29T00:10:48;100541.84;;;19.64;100.00
48053;BME280;33824;51.600;5.718;2023-07-29T00:13:14;100527.25;;;19.65;100.00
48053;BME280;33824;51.600;5.718;2023-07-29T00:15:39;100531.22;;;19.74;100.00
48053;BME280;33824;51.600;5.718;2023-07-29T00:18:05;100521.91;;;19.82;100.00
48053;BME280;33824;51.600;5.718;2023-07-29T00:20:30;100512.91;;;19.93;100.00
48053;BME280;33824;51.600;5.718;2023-07-29T00:22:56;100511.69;;;20.00;100.00
48053;BME280;33824;51.600;5.718;2023-07-29T00:25:23;100499.66;;;20.08;100.00
48053;BME280;33824;51.600;5.718;2023-07-29T00:27:48;100500.88;;;20.17;100.00
48053;BME280;33824;51.600;5.718;2023-07-29T00:30:14;100501.19;;;20.21;100.00
48053;BME280;33824;51.600;5.718;2023-07-29T00:32:40;100502.84;;;20.22;100.00
48053;BME280;33824;51.600;5.718;2023-07-29T00:35:06;100509.91;;;20.23;100.00
48053;BME280;33824;51.600;5.718;2023-07-29T00:37:31;100512.34;;;20.24;100.00
48053;BME280;33824;51.600;5.718;2023-07-29T00:39:57;100516.72;;;20.25;100.00
48053;BME280;33824;51.600;5.718;2023-07-29T00:42:23;100516.88;;;20.19;100.00
48053;BME280;33824;51.600;5.718;2023-07-29T00:44:49;100521.03;;;20.09;100.00
48053;BME280;33824;51.600;5.718;2023-07-29T00:47:15;100523.19;;;20.07;100.00
48053;BME280;33824;51.600;5.718;2023-07-29T00:49:42;100519.88;;;20.05;100.00
48053;BME280;33824;51.600;5.718;2023-07-29T00:52:08;100514.25;;;20.07;100.00
48053;BME280;33824;51.600;5.718;2023-07-29T00:54:36;100510.72;;;20.06;100.00
48053;BME280;33824;51.600;5.718;2023-07-29T00:57:02;100501.53;;;20.07;100.00
48053;BME280;33824;51.600;5.718;2023-07-29T00:59:28;100498.56;;;20.09;100.00
48053;BME280;33824;51.600;5.718;2023-07-29T01:01:55;100499.38;;;20.09;100.00
48053;BME280;33824;51.600;5.718;2023-07-29T01:04:21;100496.94;;;20.08;100.00
48053;BME280;33824;51.600;5.718;2023-07-29T01:07:06;100492.97;;;19.99;100.00
48053;BME280;33824;51.600;5.718;2023-07-29T01:09:41;100494.97;;;20.03;100.00
48053;BME280;33824;51.600;5.718;2023-07-29T01:12:15;100491.75;;;20.06;100.00
48053;BME280;33824;51.600;5.718;2023-07-29T01:17:51;100494.19;;;19.91;100.00
48053;BME280;33824;51.600;5.718;2023-07-29T01:20:19;100496.03;;;20.02;100.00
48053;BME280;33824;51.600;5.718;2023-07-29T01:22:46;100496.28;;;20.01;100.00
48053;BME280;33824;51.600;5.718;2023-07-29T01:25:13;100496.41;;;19.94;100.00
48053;BME280;33824;51.600;5.718;2023-07-29T01:27:41;100490.09;;;19.89;100.00
48053;BME280;33824;51.600;5.718;2023-07-29T01:30:08;100492.56;;;19.90;100.00
48053;BME280;33824;51.600;5.718;2023-07-29T01:33:04;100506.06;;;19.74;100.00
48053;BME280;33824;51.600;5.718;2023-07-29T01:35:40;100504.91;;;19.86;100.00
48053;BME280;33824;51.600;5.718;2023-07-29T01:38:17;100504.91;;;19.86;100.00
48053;BME280;33824;51.600;5.718;2023-07-29T01:40:44;100500.38;;;20.03;100.00
48053;BME280;33824;51.600;5.718;2023-07-29T01:43:10;100502.34;;;20.08;100.00
48053;BME280;33824;51.600;5.718;2023-07-29T01:45:36;100494.81;;;20.10;100.00
48053;BME280;33824;51.600;5.718;2023-07-29T01:48:07;100494.13;;;20.03;100.00
48053;BME280;33824;51.600;5.718;2023-07-29T01:50:33;100493.09;;;20.04;100.00
48053;BME280;33824;51.600;5.718;2023-07-29T01:53:00;100487.56;;;19.99;100.00
48053;BME280;33824;51.600;5.718;2023-07-29T01:55:25;100491.25;;;19.93;100.00
48053;BME280;33824;51.600;5.718;2023-07-29T01:57:51;100494.09;;;19.86;100.00
48053;BME280;33824;51.600;5.718;2023-07-29T02:00:18;100498.84;;;19.79;100.00
48053;BME280;33824;51.600;5.718;2023-07-29T02:02:44;100500.16;;;19.77;100.00
48053;BME280;33824;51.600;5.718;2023-07-29T02:05:10;100490.06;;;19.72;100.00
48053;BME280;33824;51.600;5.718;2023-07-29T02:07:35;100503.75;;;19.66;100.00
48053;BME280;33824;51.600;5.718;2023-07-29T02:10:01;100506.09;;;19.62;100.00
48053;BME280;33824;51.600;5.718;2023-07-29T02:12:28;100506.34;;;19.60;100.00
48053;BME280;33824;51.600;5.718;2023-07-29T02:14:54;100501.66;;;19.56;100.00
48053;BME280;33824;51.600;5.718;2023-07-29T02:17:19;100504.00;;;19.52;100.00
48053;BME280;33824;51.600;5.718;2023-07-29T02:19:45;100506.53;;;19.42;100.00
48053;BME280;33824;51.600;5.718;2023-07-29T02:22:13;100514.25;;;19.39;100.00
48053;BME280;33824;51.600;5.718;2023-07-29T02:24:39;100509.00;;;19.32;100.00
48053;BME280;33824;51.600;5.718;2023-07-29T02:27:05;100504.78;;;19.25;100.00
48053;BME280;33824;51.600;5.718;2023-07-29T02:29:30;100503.25;;;19.29;100.00
48053;BME280;33824;51.600;5.718;2023-07-29T02:31:58;100499.91;;;19.38;100.00
48053;BME280;33824;51.600;5.718;2023-07-29T02:34:23;100485.47;;;19.44;100.00
48053;BME280;33824;51.600;5.718;2023-07-29T02:36:49;100495.47;;;19.44;100.00
48053;BME280;33824;51.600;5.718;2023-07-29T02:39:14;100490.06;;;19.44;100.00
48053;BME280;33824;51.600;5.718;2023-07-29T02:41:40;100499.56;;;19.46;100.00
48053;BME280;33824;51.600;5.718;2023-07-29T02:44:05;100496.72;;;19.53;100.00
48053;BME280;33824;51.600;5.718;2023-07-29T02:46:31;100494.84;;;19.53;100.00
48053;BME280;33824;51.600;5.718;2023-07-29T02:48:57;100500.25;;;19.53;100.00
48053;BME280;33824;51.600;5.718;2023-07-29T02:51:23;100494.50;;;19.50;100.00
48053;BME280;33824;51.600;5.718;2023-07-29T02:53:48;100496.72;;;19.41;100.00
48053;BME280;33824;51.600;5.718;2023-07-29T02:56:14;100487.59;;;19.31;100.00
48053;BME280;33824;51.600;5.718;2023-07-29T02:58:39;100492.56;;;19.22;100.00
48053;BME280;33824;51.600;5.718;2023-07-29T03:01:05;100498.44;;;19.19;100.00
48053;BME280;33824;51.600;5.718;2023-07-29T03:03:32;100500.81;;;19.15;100.00
48053;BME280;33824;51.600;5.718;2023-07-29T03:06:05;100498.34;;;19.02;100.00
48053;BME280;33824;51.600;5.718;2023-07-29T03:08:32;100494.59;;;19.03;100.00
48053;BME280;33824;51.600;5.718;2023-07-29T03:10:58;100491.88;;;19.03;100.00
48053;BME280;33824;51.600;5.718;2023-07-29T03:13:24;100495.06;;;19.00;100.00
48053;BME280;33824;51.600;5.718;2023-07-29T03:15:51;100490.16;;;18.97;100.00
48053;BME280;33824;51.600;5.718;2023-07-29T03:18:16;100491.44;;;18.95;100.00
48053;BME280;33824;51.600;5.718;2023-07-29T03:20:42;100490.38;;;18.84;100.00
48053;BME280;33824;51.600;5.718;2023-07-29T03:23:08;100484.41;;;18.82;100.00
48053;BME280;33824;51.600;5.718;2023-07-29T03:25:33;100487.00;;;18.77;100.00
48053;BME280;33824;51.600;5.718;2023-07-29T03:28:00;100484.78;;;18.74;100.00
48053;BME280;33824;51.600;5.718;2023-07-29T03:30:25;100482.06;;;18.74;100.00
48053;BME280;33824;51.600;5.718;2023-07-29T03:32:51;100478.75;;;18.72;100.00
48053;BME280;33824;51.600;5.718;2023-07-29T03:35:16;100489.34;;;18.74;100.00
48053;BME280;33824;51.600;5.718;2023-07-29T03:37:42;100488.66;;;18.66;100.00
48053;BME280;33824;51.600;5.718;2023-07-29T03:40:08;100496.41;;;18.63;100.00
48053;BME280;33824;51.600;5.718;2023-07-29T03:42:37;100492.25;;;18.49;100.00
48053;BME280;33824;51.600;5.718;2023-07-29T03:45:03;100489.66;;;18.42;100.00
48053;BME280;33824;51.600;5.718;2023-07-29T03:47:28;100494.13;;;18.37;100.00
48053;BME280;33824;51.600;5.718;2023-07-29T03:49:54;100497.63;;;18.26;100.00
48053;BME280;33824;51.600;5.718;2023-07-29T03:52:19;100501.94;;;18.27;100.00
48053;BME280;33824;51.600;5.718;2023-07-29T03:54:45;100508.75;;;18.17;100.00
48053;BME280;33824;51.600;5.718;2023-07-29T03:57:11;100506.19;;;18.11;100.00
48053;BME280;33824;51.600;5.718;2023-07-29T03:59:36;100500.78;;;18.11;100.00
48053;BME280;33824;51.600;5.718;2023-07-29T04:02:02;100501.56;;;18.11;100.00
48053;BME280;33824;51.600;5.718;2023-07-29T04:04:27;100502.50;;;18.05;100.00
48053;BME280;33824;51.600;5.718;2023-07-29T04:06:53;100500.63;;;18.06;100.00
48053;BME280;33824;51.600;5.718;2023-07-29T04:09:18;100498.75;;;18.06;100.00
48053;BME280;33824;51.600;5.718;2023-07-29T04:11:44;100495.72;;;18.03;100.00
48053;BME280;33824;51.600;5.718;2023-07-29T04:14:10;100472.84;;;18.05;100.00
48053;BME280;33824;51.600;5.718;2023-07-29T04:16:35;100456.44;;;18.07;100.00
48053;BME280;33824;51.600;5.718;2023-07-29T04:19:01;100466.16;;;18.08;100.00
48053;BME280;33824;51.600;5.718;2023-07-29T04:21:26;100457.47;;;18.06;100.00
48053;BME280;33824;51.600;5.718;2023-07-29T04:23:52;100473.41;;;18.07;100.00
48053;BME280;33824;51.600;5.718;2023-07-29T04:26:17;100467.78;;;18.09;100.00
48053;BME280;33824;51.600;5.718;2023-07-29T04:28:43;100465.44;;;18.12;100.00
48053;BME280;33824;51.600;5.718;2023-07-29T04:31:09;100467.47;;;18.17;100.00
48053;BME280;33824;51.600;5.718;2023-07-29T04:33:34;100477.91;;;18.13;100.00
48053;BME280;33824;51.600;5.718;2023-07-29T04:36:00;100482.31;;;18.08;100.00
48053;BME280;33824;51.600;5.718;2023-07-29T04:38:30;100506.47;;;17.91;100.00
48053;BME280;33824;51.600;5.718;2023-07-29T04:40:57;100509.03;;;17.86;100.00
48053;BME280;33824;51.600;5.718;2023-07-29T04:43:27;100511.56;;;17.81;100.00
48053;BME280;33824;51.600;5.718;2023-07-29T04:45:54;100509.13;;;17.80;100.00
48053;BME280;33824;51.600;5.718;2023-07-29T04:48:19;100513.22;;;17.82;100.00
48053;BME280;33824;51.600;5.718;2023-07-29T04:50:46;100520.28;;;17.83;100.00
48053;BME280;33824;51.600;5.718;2023-07-29T04:53:11;100523.53;;;17.85;100.00
48053;BME280;33824;51.600;5.718;2023-07-29T04:55:37;100516.31;;;17.97;100.00
48053;BME280;33824;51.600;5.718;2023-07-29T04:58:02;100515.03;;;18.00;100.00
48053;BME280;33824;51.600;5.718;2023-07-29T05:00:28;100513.53;;;18.04;100.00
48053;BME280;33824;51.600;5.718;2023-07-29T05:02:53;100519.28;;;18.07;100.00
48053;BME280;33824;51.600;5.718;2023-07-29T05:05:19;100518.84;;;18.10;100.00
48053;BME280;33824;51.600;5.718;2023-07-29T05:07:44;100516.03;;;18.17;100.00
48053;BME280;33824;51.600;5.718;2023-07-29T05:10:10;100514.25;;;18.22;100.00
48053;BME280;33824;51.600;5.718;2023-07-29T05:12:36;100520.75;;;18.21;100.00
48053;BME280;33824;51.600;5.718;2023-07-29T05:15:02;100525.88;;;18.23;100.00
48053;BME280;33824;51.600;5.718;2023-07-29T05:17:27;100521.91;;;18.26;100.00
48053;BME280;33824;51.600;5.718;2023-07-29T05:19:53;100531.63;;;18.27;100.00
48053;BME280;33824;51.600;5.718;2023-07-29T05:22:19;100532.22;;;18.17;100.00
48053;BME280;33824;51.600;5.718;2023-07-29T05:24:45;100539.63;;;18.21;100.00
48053;BME280;33824;51.600;5.718;2023-07-29T05:27:10;100555.22;;;18.19;100.00
48053;BME280;33824;51.600;5.718;2023-07-29T05:29:36;100558.06;;;18.25;100.00
48053;BME280;33824;51.600;5.718;2023-07-29T05:32:01;100556.28;;;18.30;100.00
48053;BME280;33824;51.600;5.718;2023-07-29T05:34:27;100548.94;;;18.37;100.00
48053;BME280;33824;51.600;5.718;2023-07-29T05:36:52;100541.78;;;18.43;100.00
48053;BME280;33824;51.600;5.718;2023-07-29T05:39:18;100542.47;;;18.50;100.00
48053;BME280;33824;51.600;5.718;2023-07-29T05:41:43;100540.53;;;18.57;100.00
48053;BME280;33824;51.600;5.718;2023-07-29T05:44:10;100531.38;;;18.58;100.00
48053;BME280;33824;51.600;5.718;2023-07-29T05:46:35;100540.53;;;18.57;100.00
48053;BME280;33824;51.600;5.718;2023-07-29T05:49:01;100537.59;;;18.58;100.00
48053;BME280;33824;51.600;5.718;2023-07-29T05:51:27;100544.88;;;18.58;100.00
48053;BME280;33824;51.600;5.718;2023-07-29T05:53:53;100549.09;;;18.54;100.00
48053;BME280;33824;51.600;5.718;2023-07-29T05:56:18;100544.75;;;18.53;100.00
48053;BME280;33824;51.600;5.718;2023-07-29T05:58:44;100540.88;;;18.60;100.00
48053;BME280;33824;51.600;5.718;2023-07-29T06:01:09;100536.66;;;18.76;100.00
48053;BME280;33824;51.600;5.718;2023-07-29T06:03:35;100547.47;;;18.88;100.00
48053;BME280;33824;51.600;5.718;2023-07-29T06:06:00;100544.06;;;18.92;100.00
48053;BME280;33824;51.600;5.718;2023-07-29T06:08:26;100542.50;;;19.20;100.00
48053;BME280;33824;51.600;5.718;2023-07-29T06:10:53;100551.44;;;19.43;100.00
48053;BME280;33824;51.600;5.718;2023-07-29T06:13:19;100541.84;;;19.64;100.00
48053;BME280;33824;51.600;5.718;2023-07-29T06:15:44;100539.75;;;19.83;100.00
48053;BME280;33824;51.600;5.718;2023-07-29T06:18:10;100540.63;;;20.00;100.00
48053;BME280;33824;51.600;5.718;2023-07-29T06:20:36;100526.97;;;20.23;100.00
48053;BME280;33824;51.600;5.718;2023-07-29T06:23:01;100527.50;;;20.37;100.00
48053;BME280;33824;51.600;5.718;2023-07-29T06:25:27;100533.34;;;20.45;100.00
48053;BME280;33824;51.600;5.718;2023-07-29T06:27:53;100535.38;;;20.55;99.47
48053;BME280;33824;51.600;5.718;2023-07-29T06:30:18;100529.91;;;20.50;97.70
48053;BME280;33824;51.600;5.718;2023-07-29T06:32:44;100542.59;;;20.33;98.56
48053;BME280;33824;51.600;5.718;2023-07-29T06:35:09;100539.78;;;20.28;97.06
48053;BME280;33824;51.600;5.718;2023-07-29T06:37:35;100537.38;;;20.43;98.07
48053;BME280;33824;51.600;5.718;2023-07-29T06:40:00;100527.16;;;20.83;97.16
48053;BME280;33824;51.600;5.718;2023-07-29T06:42:26;100536.50;;;20.92;96.94
48053;BME280;33824;51.600;5.718;2023-07-29T06:44:51;100531.84;;;20.71;96.08
48053;BME280;33824;51.600;5.718;2023-07-29T06:47:17;100533.16;;;20.52;96.41
48053;BME280;33824;51.600;5.718;2023-07-29T06:49:42;100546.16;;;20.50;96.67
48053;BME280;33824;51.600;5.718;2023-07-29T06:52:08;100547.34;;;20.59;95.94
48053;BME280;33824;51.600;5.718;2023-07-29T06:54:33;100540.56;;;20.73;95.53
48053;BME280;33824;51.600;5.718;2023-07-29T06:56:59;100548.00;;;20.83;95.09
48053;BME280;33824;51.600;5.718;2023-07-29T06:59:24;100562.38;;;20.83;94.87
48053;BME280;33824;51.600;5.718;2023-07-29T07:01:51;100551.69;;;20.93;94.38
48053;BME280;33824;51.600;5.718;2023-07-29T07:04:16;100549.13;;;21.03;93.64
48053;BME280;33824;51.600;5.718;2023-07-29T07:06:42;100543.88;;;21.14;93.97
48053;BME280;33824;51.600;5.718;2023-07-29T07:09:07;100541.28;;;21.24;94.05
48053;BME280;33824;51.600;5.718;2023-07-29T07:11:33;100547.41;;;21.36;93.14
48053;BME280;33824;51.600;5.718;2023-07-29T07:13:59;100547.78;;;21.66;93.90
48053;BME280;33824;51.600;5.718;2023-07-29T07:16:24;100555.66;;;21.89;93.24
48053;BME280;33824;51.600;5.718;2023-07-29T07:18:50;100556.88;;;21.98;92.60
48053;BME280;33824;51.600;5.718;2023-07-29T07:21:15;100556.09;;;22.30;90.86
48053;BME280;33824;51.600;5.718;2023-07-29T07:23:41;100562.41;;;22.09;89.46
48053;BME280;33824;51.600;5.718;2023-07-29T07:26:06;100564.84;;;21.83;90.82
48053;BME280;33824;51.600;5.718;2023-07-29T07:28:32;100566.50;;;21.89;90.85
48053;BME280;33824;51.600;5.718;2023-07-29T07:30:57;100568.63;;;21.82;90.86
48053;BME280;33824;51.600;5.718;2023-07-29T07:33:23;100566.59;;;21.51;90.77
48053;BME280;33824;51.600;5.718;2023-07-29T07:35:48;100568.94;;;21.42;91.15
48053;BME280;33824;51.600;5.718;2023-07-29T07:38:14;100562.56;;;21.32;91.92
48053;BME280;33824;51.600;5.718;2023-07-29T07:40:39;100566.91;;;21.33;91.26
48053;BME280;33824;51.600;5.718;2023-07-29T07:43:05;100571.19;;;21.50;91.23
48053;BME280;33824;51.600;5.718;2023-07-29T07:45:32;100566.53;;;21.68;91.42
48053;BME280;33824;51.600;5.718;2023-07-29T07:47:57;100566.09;;;21.97;90.50
48053;BME280;33824;51.600;5.718;2023-07-29T07:50:23;100567.53;;;22.05;90.58
48053;BME280;33824;51.600;5.718;2023-07-29T07:52:49;100572.13;;;22.05;90.60
48053;BME280;33824;51.600;5.718;2023-07-29T07:55:15;100571.44;;;22.14;89.80
48053;BME280;33824;51.600;5.718;2023-07-29T07:57:40;100578.03;;;22.23;89.59
48053;BME280;33824;51.600;5.718;2023-07-29T08:00:06;100574.69;;;22.16;90.03
48053;BME280;33824;51.600;5.718;2023-07-29T08:02:32;100578.25;;;22.17;89.27
48053;BME280;33824;51.600;5.718;2023-07-29T08:04:57;100580.66;;;22.13;89.31
48053;BME280;33824;51.600;5.718;2023-07-29T08:07:24;100578.91;;;22.29;89.53
48053;BME280;33824;51.600;5.718;2023-07-29T08:09:50;100576.97;;;22.24;88.33
48053;BME280;33824;51.600;5.718;2023-07-29T08:12:16;100579.88;;;22.18;88.75
48053;BME280;33824;51.600;5.718;2023-07-29T08:14:42;100580.38;;;22.15;87.35
48053;BME280;33824;51.600;5.718;2023-07-29T08:17:07;100584.13;;;22.09;86.91
48053;BME280;33824;51.600;5.718;2023-07-29T08:19:33;100580.53;;;22.30;87.00
48053;BME280;33824;51.600;5.718;2023-07-29T08:22:02;100576.09;;;22.51;86.53
48053;BME280;33824;51.600;5.718;2023-07-29T08:24:28;100566.44;;;22.65;85.12
48053;BME280;33824;51.600;5.718;2023-07-29T08:26:53;100566.75;;;22.68;85.70
48053;BME280;33824;51.600;5.718;2023-07-29T08:29:19;100571.00;;;22.86;84.72
48053;BME280;33824;51.600;5.718;2023-07-29T08:31:44;100579.06;;;22.76;83.97
48053;BME280;33824;51.600;5.718;2023-07-29T08:34:10;100584.09;;;22.94;85.33
48053;BME280;33824;51.600;5.718;2023-07-29T08:36:35;100579.41;;;23.26;82.71
48053;BME280;33824;51.600;5.718;2023-07-29T08:39:01;100587.03;;;22.87;82.95
48053;BME280;33824;51.600;5.718;2023-07-29T08:41:32;100587.91;;;22.98;83.55
48053;BME280;33824;51.600;5.718;2023-07-29T08:44:12;100587.94;;;23.03;80.64
48053;BME280;33824;51.600;5.718;2023-07-29T08:46:42;100578.03;;;22.87;81.69
48053;BME280;33824;51.600;5.718;2023-07-29T08:49:08;100585.69;;;22.58;83.36
48053;BME280;33824;51.600;5.718;2023-07-29T08:51:33;100572.69;;;22.65;84.00
48053;BME280;33824;51.600;5.718;2023-07-29T08:54:01;100571.94;;;22.70;83.26
48053;BME280;33824;51.600;5.718;2023-07-29T08:56:26;100584.59;;;22.86;83.87
48053;BME280;33824;51.600;5.718;2023-07-29T08:58:53;100583.59;;;23.02;82.89
48053;BME280;33824;51.600;5.718;2023-07-29T09:01:19;100582.19;;;22.94;82.75
48053;BME280;33824;51.600;5.718;2023-07-29T09:03:44;100582.59;;;23.18;82.70
48053;BME280;33824;51.600;5.718;2023-07-29T09:06:10;100574.25;;;23.30;82.13
48053;BME280;33824;51.600;5.718;2023-07-29T09:08:37;100569.19;;;23.49;82.45
48053;BME280;33824;51.600;5.718;2023-07-29T09:11:03;100566.00;;;23.62;81.15
48053;BME280;33824;51.600;5.718;2023-07-29T09:13:28;100571.75;;;23.75;81.02
48053;BME280;33824;51.600;5.718;2023-07-29T09:15:56;100566.31;;;23.85;80.56
48053;BME280;33824;51.600;5.718;2023-07-29T09:18:22;100566.31;;;23.85;80.29
48053;BME280;33824;51.600;5.718;2023-07-29T09:20:49;100566.03;;;23.77;78.50
48053;BME280;33824;51.600;5.718;2023-07-29T09:23:15;100561.41;;;23.82;79.21
48053;BME280;33824;51.600;5.718;2023-07-29T09:25:41;100554.66;;;23.95;78.51
48053;BME280;33824;51.600;5.718;2023-07-29T09:28:14;100560.56;;;23.72;77.35
48053;BME280;33824;51.600;5.718;2023-07-29T09:30:42;100560.31;;;23.73;78.12
48053;BME280;33824;51.600;5.718;2023-07-29T09:33:10;100558.75;;;23.93;78.23
48053;BME280;33824;51.600;5.718;2023-07-29T09:35:37;100558.28;;;24.26;77.20
48053;BME280;33824;51.600;5.718;2023-07-29T09:38:04;100553.13;;;24.45;74.83
48053;BME280;33824;51.600;5.718;2023-07-29T09:40:40;100547.66;;;24.19;72.31
48053;BME280;33824;51.600;5.718;2023-07-29T09:43:10;100541.09;;;24.66;75.91
48053;BME280;33824;51.600;5.718;2023-07-29T09:45:36;100546.56;;;24.71;75.23
48053;BME280;33824;51.600;5.718;2023-07-29T09:48:03;100544.94;;;24.55;74.57
48053;BME280;33824;51.600;5.718;2023-07-29T09:50:30;100541.09;;;24.71;75.39
48053;BME280;33824;51.600;5.718;2023-07-29T09:52:56;100541.63;;;24.98;75.11
48053;BME280;33824;51.600;5.718;2023-07-29T09:55:26;100541.34;;;25.00;74.70
48053;BME280;33824;51.600;5.718;2023-07-29T09:57:59;100550.38;;;24.90;72.24
48053;BME280;33824;51.600;5.718;2023-07-29T10:00:32;100552.84;;;24.92;73.57
48053;BME280;33824;51.600;5.718;2023-07-29T10:02:58;100553.38;;;24.89;73.05
48053;BME280;33824;51.600;5.718;2023-07-29T10:05:28;100551.19;;;24.75;73.00
48053;BME280;33824;51.600;5.718;2023-07-29T10:07:54;100550.38;;;24.75;73.67
48053;BME280;33824;51.600;5.718;2023-07-29T10:10:20;100554.22;;;24.49;74.55
48053;BME280;33824;51.600;5.718;2023-07-29T10:12:46;100568.38;;;24.41;74.65
48053;BME280;33824;51.600;5.718;2023-07-29T10:15:12;100556.09;;;24.33;74.72
48053;BME280;33824;51.600;5.718;2023-07-29T10:17:39;100564.81;;;24.25;74.53
48053;BME280;33824;51.600;5.718;2023-07-29T10:20:09;100564.25;;;24.28;74.83
48053;BME280;33824;51.600;5.718;2023-07-29T10:22:40;100561.19;;;23.99;73.98
48053;BME280;33824;51.600;5.718;2023-07-29T10:25:15;100559.31;;;24.00;74.34
48053;BME280;33824;51.600;5.718;2023-07-29T10:27:43;100560.38;;;24.09;75.34
48053;BME280;33824;51.600;5.718;2023-07-29T10:30:13;100554.66;;;24.05;75.98
48053;BME280;33824;51.600;5.718;2023-07-29T10:32:43;100545.66;;;24.05;75.30
48053;BME280;33824;51.600;5.718;2023-07-29T10:35:11;100547.66;;;24.34;74.98
48053;BME280;33824;51.600;5.718;2023-07-29T10:37:37;100547.13;;;24.68;75.58
48053;BME280;33824;51.600;5.718;2023-07-29T10:40:07;100551.19;;;24.91;75.32
48053;BME280;33824;51.600;5.718;2023-07-29T10:42:32;100552.41;;;25.49;73.24
48053;BME280;33824;51.600;5.718;2023-07-29T10:44:58;100537.31;;;25.71;72.70
48053;BME280;33824;51.600;5.718;2023-07-29T10:47:25;100525.19;;;25.88;71.70
48053;BME280;33824;51.600;5.718;2023-07-29T10:49:53;100526.72;;;26.04;71.88
48053;BME280;33824;51.600;5.718;2023-07-29T10:55:03;100531.00;;;26.15;70.05
48053;BME280;33824;51.600;5.718;2023-07-29T10:57:37;100528.03;;;26.11;66.31
48053;BME280;33824;51.600;5.718;2023-07-29T11:00:04;100526.97;;;26.46;68.77
48053;BME280;33824;51.600;5.718;2023-07-29T11:02:32;100520.16;;;27.01;69.10
48053;BME280;33824;51.600;5.718;2023-07-29T11:04:58;100524.50;;;27.07;66.87
48053;BME280;33824;51.600;5.718;2023-07-29T11:07:25;100527.78;;;26.76;65.12
48053;BME280;33824;51.600;5.718;2023-07-29T11:15:15;100521.50;;;26.07;66.17
48053;BME280;33824;51.600;5.718;2023-07-29T11:20:08;100529.13;;;25.71;67.42
48053;BME280;33824;51.600;5.718;2023-07-29T11:22:34;100528.09;;;25.47;68.20
48053;BME280;33824;51.600;5.718;2023-07-29T11:25:00;100529.28;;;25.26;69.68
48053;BME280;33824;51.600;5.718;2023-07-29T11:27:25;100529.91;;;25.03;69.75
48053;BME280;33824;51.600;5.718;2023-07-29T11:29:56;100522.03;;;24.91;70.23
48053;BME280;33824;51.600;5.718;2023-07-29T11:32:22;100523.34;;;25.09;71.31
48053;BME280;33824;51.600;5.718;2023-07-29T11:34:48;100523.00;;;25.25;71.48
48053;BME280;33824;51.600;5.718;2023-07-29T11:37:13;100529.28;;;25.26;71.69
48053;BME280;33824;51.600;5.718;2023-07-29T11:39:40;100529.03;;;25.17;72.45
48053;BME280;33824;51.600;5.718;2023-07-29T11:42:06;100523.59;;;25.22;71.89
48053;BME280;33824;51.600;5.718;2023-07-29T11:44:32;100526.84;;;25.24;71.53
48053;BME280;33824;51.600;5.718;2023-07-29T11:46:57;100527.34;;;25.26;71.97
48053;BME280;33824;51.600;5.718;2023-07-29T11:49:23;100528.16;;;25.37;72.19
48053;BME280;33824;51.600;5.718;2023-07-29T11:51:48;100532.53;;;25.28;72.93
48053;BME280;33824;51.600;5.718;2023-07-29T11:54:15;100535.28;;;25.33;72.73
48053;BME280;33824;51.600;5.718;2023-07-29T11:56:40;100542.63;;;25.27;72.44
48053;BME280;33824;51.600;5.718;2023-07-29T11:59:06;100532.28;;;25.24;70.65
48053;BME280;33824;51.600;5.718;2023-07-29T12:01:32;100533.63;;;25.32;70.66
48053;BME280;33824;51.600;5.718;2023-07-29T12:03:58;100522.28;;;25.74;69.70
48053;BME280;33824;51.600;5.718;2023-07-29T12:06:25;100527.88;;;25.93;68.09
48053;BME280;33824;51.600;5.718;2023-07-29T12:08:51;100519.34;;;26.43;67.72
48053;BME280;33824;51.600;5.718;2023-07-29T12:11:17;100526.50;;;26.68;67.93
48053;BME280;33824;51.600;5.718;2023-07-29T12:13:43;100512.25;;;27.00;66.95
48053;BME280;33824;51.600;5.718;2023-07-29T12:16:08;100513.25;;;26.85;66.38
48053;BME280;33824;51.600;5.718;2023-07-29T12:18:35;100503.19;;;26.47;65.83
48053;BME280;33824;51.600;5.718;2023-07-29T12:21:02;100512.09;;;26.29;66.93
48053;BME280;33824;51.600;5.718;2023-07-29T12:23:29;100513.81;;;26.19;68.24
48053;BME280;33824;51.600;5.718;2023-07-29T12:25:59;100521.19;;;25.75;67.12
48053;BME280;33824;51.600;5.718;2023-07-29T12:28:25;100526.78;;;25.35;68.18
48053;BME280;33824;51.600;5.718;2023-07-29T12:30:55;100546.31;;;24.88;69.52
48053;BME280;33824;51.600;5.718;2023-07-29T12:33:36;100550.09;;;24.36;70.08
48053;BME280;33824;51.600;5.718;2023-07-29T12:36:03;100561.81;;;24.31;72.07
48053;BME280;33824;51.600;5.718;2023-07-29T12:38:29;100604.31;;;23.50;74.51
48053;BME280;33824;51.600;5.718;2023-07-29T12:40:55;100600.97;;;22.11;81.17
48053;BME280;33824;51.600;5.718;2023-07-29T12:43:21;100601.44;;;21.21;82.57
48053;BME280;33824;51.600;5.718;2023-07-29T12:45:49;100604.75;;;20.56;85.44
48053;BME280;33824;51.600;5.718;2023-07-29T12:48:14;100617.13;;;20.35;85.23
48053;BME280;33824;51.600;5.718;2023-07-29T12:50:41;100614.72;;;20.10;87.70
48053;BME280;33824;51.600;5.718;2023-07-29T12:53:08;100622.31;;;19.97;89.38
48053;BME280;33824;51.600;5.718;2023-07-29T12:55:35;100608.38;;;19.77;91.25